Time;durP1;ratioP1;P1;durP2;ratioP2;P2;SDS_P1;SDS_P2;PMS_P1;PMS_P2;Temp;Humidity;BMP_temperature;BMP_pressure;BME280_temperature;BME280_humidity;BME280_pressure;Samples;Min_cycle;Max_cycle;Signal;HPM_P1;HPM_P2
2021/07/07 00:09:15;166985.00;0.56;289.07;70768.00;0.24;123.09;;;;;21.00;9.10;;;;;;2456981;41;3547;31
2021/07/07 00:44:01;186083.00;0.62;321.96;0.00;0.00;0.62;;;;;21.70;5.90;;;;;;2467026;41;3804;31
2021/07/07 00:58:48;169224.00;0.56;292.93;0.00;0.00;0.62;;;;;21.90;5.70;;;;;;2468061;40;3504;31
2021/07/07 02:30:00;331900.00;1.11;572.75;0.00;0.00;0.62;;;;;22.70;2.40;;;;;;2472630;40;3560;31
2021/07/07 02:59:34;152301.00;0.51;263.77;0.00;0.00;0.62;;;;;22.50;4.00;;;;;;2512396;40;3678;31
2021/07/07 03:19:22;40021.00;0.13;69.92;0.00;0.00;0.62;;;;;22.20;5.60;;;;;;2510023;40;3526;31
2021/07/07 03:56:19;212609.00;0.71;367.63;79384.00;0.26;137.97;;;;;22.00;6.10;;;;;;2271318;61;894;-91
2021/07/07 03:58:46;92904.00;0.31;161.32;19054.00;0.06;33.63;;;;;22.10;5.00;;;;;;2269652;61;387;-88
2021/07/07 04:01:13;0.00;0.00;0.62;0.00;0.00;0.62;;;;;22.10;4.80;;;;;;2261149;61;898;-88
2021/07/07 04:08:38;26307.00;0.09;46.19;0.00;0.00;0.62;;;;;22.50;3.60;;;;;;2271125;61;879;-91
2021/07/07 04:18:29;0.00;0.00;0.62;0.00;0.00;0.62;;;;;21.70;7.00;;;;;;2271273;61;862;-90
2021/07/07 04:20:56;468211.00;1.56;807.11;105983.00;0.35;183.90;;;;;21.40;6.80;;;;;;2257029;61;917;-88
2021/07/07 06:06:53;53919.00;0.18;93.96;0.00;0.00;0.62;;;;;22.00;2.50;;;;;;2267863;61;1883;-90
2021/07/07 07:47:20;108863.00;0.36;188.87;0.00;0.00;0.62;;;;;23.30;1.20;;;;;;2409118;41;3294;31
2021/07/07 09:15:32;237392.00;0.79;410.27;67068.00;0.22;116.69;;;;;23.00;1.00;;;;;;2271731;61;1300;-89
2021/07/07 09:53:28;307804.00;1.03;531.33;60978.00;0.20;106.17;;;;;25.10;1.00;;;;;;2412895;41;3330;31
2021/07/07 12:25:24;166421.00;0.55;288.10;63938.00;0.21;111.28;;;;;25.10;1.00;;;;;;2271204;61;920;-93
2021/07/07 12:40:57;309357.00;1.03;534.00;39101.00;0.13;68.33;;;;;25.90;1.00;;;;;;2271458;61;932;-92
2021/07/07 15:56:57;0.00;0.00;0.62;0.00;0.00;0.62;;;;;27.00;1.00;;;;;;2270420;61;1281;-86
2021/07/07 15:59:24;0.00;0.00;0.62;0.00;0.00;0.62;;;;;27.10;1.00;;;;;;2268573;61;1121;-86
2021/07/07 16:01:51;16072.00;0.05;28.47;0.00;0.00;0.62;;;;;27.20;1.00;;;;;;2268506;61;1589;-87
2021/07/07 16:04:19;22315.00;0.07;39.28;0.00;0.00;0.62;;;;;27.40;1.00;;;;;;2268599;61;1320;-85
2021/07/07 16:06:46;0.00;0.00;0.62;0.00;0.00;0.62;;;;;27.50;1.00;;;;;;2268576;61;1909;-86
2021/07/07 16:09:13;0.00;0.00;0.62;0.00;0.00;0.62;;;;;27.70;1.00;;;;;;2268547;61;1056;-86
2021/07/07 16:11:40;57134.00;0.19;99.52;0.00;0.00;0.62;;;;;27.70;1.00;;;;;;2268514;61;1514;-87
2021/07/07 16:14:08;0.00;0.00;0.62;0.00;0.00;0.62;;;;;27.70;1.00;;;;;;2268531;61;1383;-87
2021/07/07 16:16:36;0.00;0.00;0.62;0.00;0.00;0.62;;;;;27.90;1.00;;;;;;2268549;61;1184;-87
2021/07/07 16:19:03;0.00;0.00;0.62;0.00;0.00;0.62;;;;;27.70;1.00;;;;;;2268515;61;1751;-87
2021/07/07 16:21:30;0.00;0.00;0.62;0.00;0.00;0.62;;;;;27.50;1.00;;;;;;2268537;61;921;-87
2021/07/07 16:23:57;0.00;0.00;0.62;0.00;0.00;0.62;;;;;27.20;1.00;;;;;;2268347;61;1297;-86
2021/07/07 16:26:24;521.00;0.00;1.52;0.00;0.00;0.62;;;;;27.00;1.00;;;;;;2268456;61;1985;-87
2021/07/07 16:28:51;0.00;0.00;0.62;0.00;0.00;0.62;;;;;27.10;1.00;;;;;;2268480;61;1324;-86
2021/07/07 16:31:23;0.00;0.00;0.62;0.00;0.00;0.62;;;;;27.40;1.00;;;;;;2268485;61;1157;-87
2021/07/07 16:33:49;0.00;0.00;0.62;0.00;0.00;0.62;;;;;27.40;1.00;;;;;;2268387;61;1364;-87
2021/07/07 16:36:18;0.00;0.00;0.62;0.00;0.00;0.62;;;;;27.10;1.00;;;;;;2268506;61;1021;-86
2021/07/07 16:38:44;0.00;0.00;0.62;0.00;0.00;0.62;;;;;27.00;1.00;;;;;;2268514;61;1139;-86
2021/07/07 16:41:12;15991.00;0.05;28.33;0.00;0.00;0.62;;;;;26.80;1.00;;;;;;2268516;61;937;-86
2021/07/07 16:43:39;0.00;0.00;0.62;0.00;0.00;0.62;;;;;26.80;1.00;;;;;;2268408;61;1313;-87
2021/07/07 16:46:06;0.00;0.00;0.62;0.00;0.00;0.62;;;;;26.70;1.00;;;;;;2268425;61;1046;-87
2021/07/07 16:48:34;36281.00;0.12;63.45;0.00;0.00;0.62;;;;;27.10;1.00;;;;;;2268435;61;1931;-87
2021/07/07 16:51:02;0.00;0.00;0.62;0.00;0.00;0.62;;;;;27.30;1.00;;;;;;2268433;61;1051;-86
2021/07/07 16:53:29;0.00;0.00;0.62;0.00;0.00;0.62;;;;;27.50;1.00;;;;;;2268438;61;1127;-87
2021/07/07 16:55:56;0.00;0.00;0.62;0.00;0.00;0.62;;;;;27.60;1.00;;;;;;2268379;61;1230;-86
2021/07/07 16:58:23;0.00;0.00;0.62;0.00;0.00;0.62;;;;;27.80;1.00;;;;;;2268389;61;1115;-86
2021/07/07 17:00:51;0.00;0.00;0.62;0.00;0.00;0.62;;;;;27.80;1.00;;;;;;2268407;61;1230;-86
2021/07/07 17:03:18;0.00;0.00;0.62;0.00;0.00;0.62;;;;;27.80;1.00;;;;;;2268423;61;1119;-87
2021/07/07 17:05:48;0.00;0.00;0.62;0.00;0.00;0.62;;;;;27.40;1.00;;;;;;2268460;61;1288;-86
2021/07/07 17:08:15;38486.00;0.13;67.27;0.00;0.00;0.62;;;;;27.50;1.00;;;;;;2268358;61;2000;-86
2021/07/07 17:10:42;148169.00;0.49;256.65;0.00;0.00;0.62;;;;;27.70;1.00;;;;;;2268410;61;1054;-86
2021/07/07 17:13:09;0.00;0.00;0.62;0.00;0.00;0.62;;;;;27.90;1.00;;;;;;2268428;61;1099;-85
2021/07/07 17:15:36;30855.00;0.10;54.06;0.00;0.00;0.62;;;;;27.70;1.00;;;;;;2268363;61;1473;-86
2021/07/07 17:18:03;8015.00;0.03;14.51;0.00;0.00;0.62;;;;;27.30;1.00;;;;;;2268360;61;1745;-85
2021/07/07 17:20:30;0.00;0.00;0.62;0.00;0.00;0.62;;;;;27.40;1.00;;;;;;2268326;61;925;-86
2021/07/07 17:22:59;177267.00;0.59;306.78;0.00;0.00;0.62;;;;;27.50;1.00;;;;;;2268336;61;1739;-87
2021/07/07 17:25:26;0.00;0.00;0.62;0.00;0.00;0.62;;;;;27.50;1.00;;;;;;2268317;61;1303;-86
2021/07/07 17:27:53;0.00;0.00;0.62;0.00;0.00;0.62;;;;;27.40;1.00;;;;;;2268303;61;1920;-85
2021/07/07 17:30:20;0.00;0.00;0.62;0.00;0.00;0.62;;;;;27.40;1.00;;;;;;2268390;61;1103;-86
2021/07/07 17:32:47;0.00;0.00;0.62;0.00;0.00;0.62;;;;;27.50;1.00;;;;;;2268337;61;1138;-86
2021/07/07 17:35:14;0.00;0.00;0.62;0.00;0.00;0.62;;;;;27.70;1.00;;;;;;2268644;61;1380;-88
2021/07/07 17:37:41;0.00;0.00;0.62;0.00;0.00;0.62;;;;;27.40;1.00;;;;;;2269008;61;1162;-87
2021/07/07 17:40:11;7845.00;0.03;14.22;0.00;0.00;0.62;;;;;26.90;1.00;;;;;;2269025;61;1123;-87
2021/07/07 17:42:38;7408.00;0.02;13.46;0.00;0.00;0.62;;;;;26.60;1.00;;;;;;2269044;61;1002;-86
2021/07/07 17:45:06;0.00;0.00;0.62;0.00;0.00;0.62;;;;;26.50;1.00;;;;;;2269008;61;1399;-87
2021/07/07 17:47:33;0.00;0.00;0.62;0.00;0.00;0.62;;;;;26.30;1.00;;;;;;2268948;61;1920;-85
2021/07/07 17:50:00;0.00;0.00;0.62;0.00;0.00;0.62;;;;;26.40;1.00;;;;;;2268987;61;1106;-85
2021/07/07 17:52:27;4817.00;0.02;8.97;0.00;0.00;0.62;;;;;26.50;1.00;;;;;;2268862;61;1610;-86
2021/07/07 17:54:54;0.00;0.00;0.62;0.00;0.00;0.62;;;;;26.30;1.00;;;;;;2268876;61;1351;-86
2021/07/07 17:57:22;0.00;0.00;0.62;0.00;0.00;0.62;;;;;26.40;1.00;;;;;;2268965;61;1055;-86
2021/07/07 17:59:49;0.00;0.00;0.62;0.00;0.00;0.62;;;;;26.20;1.00;;;;;;2268946;61;1079;-86
2021/07/07 18:02:16;0.00;0.00;0.62;0.00;0.00;0.62;;;;;26.20;1.00;;;;;;2269009;61;1131;-86
2021/07/07 18:04:43;18467.00;0.06;32.62;0.00;0.00;0.62;;;;;26.20;1.00;;;;;;2268836;61;1735;-86
2021/07/07 18:07:10;0.00;0.00;0.62;0.00;0.00;0.62;;;;;26.30;1.00;;;;;;2268923;61;1917;-85
2021/07/07 18:09:37;0.00;0.00;0.62;0.00;0.00;0.62;;;;;26.30;1.00;;;;;;2268986;61;1003;-86
2021/07/07 18:12:05;0.00;0.00;0.62;0.00;0.00;0.62;;;;;26.30;1.00;;;;;;2268937;61;1138;-86
2021/07/07 18:14:33;0.00;0.00;0.62;0.00;0.00;0.62;;;;;26.30;1.00;;;;;;2268875;61;1287;-86
2021/07/07 18:17:00;0.00;0.00;0.62;0.00;0.00;0.62;;;;;26.40;1.00;;;;;;2268900;61;1159;-86
2021/07/07 18:19:27;59560.00;0.20;103.72;0.00;0.00;0.62;;;;;26.30;1.00;;;;;;2268896;61;1118;-86
2021/07/07 18:21:55;0.00;0.00;0.62;0.00;0.00;0.62;;;;;26.20;1.00;;;;;;2268864;61;1590;-87
2021/07/07 18:24:22;0.00;0.00;0.62;0.00;0.00;0.62;;;;;25.60;1.00;;;;;;2268788;61;1776;-87
2021/07/07 18:26:49;4218.00;0.01;7.93;0.00;0.00;0.62;;;;;25.10;1.00;;;;;;2268903;61;1123;-87
2021/07/07 18:29:15;0.00;0.00;0.62;0.00;0.00;0.62;;;;;24.90;1.00;;;;;;2268859;61;1928;-84
2021/07/07 18:31:44;0.00;0.00;0.62;0.00;0.00;0.62;;;;;25.10;1.00;;;;;;2268829;61;1075;-85
2021/07/07 18:34:11;0.00;0.00;0.62;0.00;0.00;0.62;;;;;25.30;1.00;;;;;;2268821;61;1367;-85
2021/07/07 18:36:38;16907.00;0.06;29.91;0.00;0.00;0.62;;;;;25.70;1.00;;;;;;2268800;61;1052;-87
2021/07/07 18:39:05;0.00;0.00;0.62;0.00;0.00;0.62;;;;;25.90;1.00;;;;;;2268851;61;1017;-86
2021/07/07 18:41:32;398401.00;1.33;687.06;173456.00;0.58;300.22;;;;;25.90;1.00;;;;;;2268831;61;1082;-85
2021/07/07 18:43:58;0.00;0.00;0.62;0.00;0.00;0.62;;;;;25.90;1.00;;;;;;2268776;61;1402;-86
2021/07/07 18:46:25;0.00;0.00;0.62;0.00;0.00;0.62;;;;;25.80;1.00;;;;;;2268783;61;1163;-85
2021/07/07 18:48:54;0.00;0.00;0.62;0.00;0.00;0.62;;;;;25.80;1.00;;;;;;2268757;61;1992;-86
2021/07/07 18:51:22;310502.00;1.04;535.97;100126.00;0.33;173.79;;;;;25.80;1.00;;;;;;2268797;61;1135;-84
2021/07/07 18:53:49;0.00;0.00;0.62;0.00;0.00;0.62;;;;;25.80;1.00;;;;;;2268765;61;1270;-85
2021/07/07 18:56:16;123465.00;0.41;214.06;0.00;0.00;0.62;;;;;25.80;1.00;;;;;;2268572;61;1522;-86
2021/07/07 18:58:43;77882.00;0.26;135.38;0.00;0.00;0.62;;;;;25.80;1.00;;;;;;2268720;61;1566;-86
2021/07/07 19:01:11;35579.00;0.12;62.24;0.00;0.00;0.62;;;;;25.80;1.00;;;;;;2268728;61;1253;-85
2021/07/07 19:03:38;28662.00;0.10;50.27;0.00;0.00;0.62;;;;;25.70;1.00;;;;;;2268719;61;1391;-85
2021/07/07 19:06:07;0.00;0.00;0.62;0.00;0.00;0.62;;;;;25.60;1.00;;;;;;2268776;61;1067;-86
2021/07/07 19:08:34;0.00;0.00;0.62;0.00;0.00;0.62;;;;;25.50;1.00;;;;;;2268706;61;2005;-86
2021/07/07 19:11:02;0.00;0.00;0.62;0.00;0.00;0.62;;;;;25.40;1.00;;;;;;2268765;61;1023;-85
2021/07/07 19:13:30;6144.00;0.02;11.27;0.00;0.00;0.62;;;;;25.30;1.00;;;;;;2268509;61;1700;-85
2021/07/07 19:15:57;22585.00;0.08;39.75;0.00;0.00;0.62;;;;;25.30;1.00;;;;;;2268680;61;1288;-85
2021/07/07 19:18:24;0.00;0.00;0.62;0.00;0.00;0.62;;;;;25.20;1.00;;;;;;2268716;61;1051;-85
2021/07/07 19:20:53;56774.00;0.19;98.90;0.00;0.00;0.62;;;;;25.20;1.00;;;;;;2268626;61;1043;-86
2021/07/07 19:23:21;0.00;0.00;0.62;0.00;0.00;0.62;;;;;25.20;1.00;;;;;;2268685;61;1062;-86
2021/07/07 19:25:48;0.00;0.00;0.62;0.00;0.00;0.62;;;;;25.20;1.00;;;;;;2268661;61;1575;-86
2021/07/07 19:28:17;0.00;0.00;0.62;0.00;0.00;0.62;;;;;25.20;1.00;;;;;;2268651;61;2002;-85
2021/07/07 19:30:44;0.00;0.00;0.62;0.00;0.00;0.62;;;;;25.30;1.00;;;;;;2268678;61;1049;-87
2021/07/07 19:33:12;0.00;0.00;0.62;0.00;0.00;0.62;;;;;25.40;1.00;;;;;;2268626;61;1076;-86
2021/07/07 19:35:39;14286.00;0.05;25.37;0.00;0.00;0.62;;;;;25.40;1.00;;;;;;2268640;61;1413;-86
2021/07/07 19:38:06;0.00;0.00;0.62;0.00;0.00;0.62;;;;;25.20;1.00;;;;;;2268624;61;1106;-86
2021/07/07 19:40:36;28249.00;0.09;49.55;0.00;0.00;0.62;;;;;25.20;1.00;;;;;;2268554;61;1597;-86
2021/07/07 19:43:04;0.00;0.00;0.62;0.00;0.00;0.62;;;;;25.30;1.00;;;;;;2268582;61;1001;-85
2021/07/07 19:45:31;10077.00;0.03;18.08;0.00;0.00;0.62;;;;;25.30;1.00;;;;;;2268607;61;1287;-86
2021/07/07 19:47:59;12731.00;0.04;22.68;0.00;0.00;0.62;;;;;25.30;1.00;;;;;;2268581;61;1911;-86
2021/07/07 19:50:29;191568.00;0.64;331.41;18275.00;0.06;32.28;;;;;25.20;1.00;;;;;;2268607;61;1001;-86
2021/07/07 19:52:56;45494.00;0.15;79.39;0.00;0.00;0.62;;;;;25.30;1.00;;;;;;2268566;61;1083;-86
2021/07/07 19:55:23;0.00;0.00;0.62;0.00;0.00;0.62;;;;;25.20;1.00;;;;;;2268463;61;1719;-86
2021/07/07 19:57:53;18011.00;0.06;31.83;0.00;0.00;0.62;;;;;25.10;1.00;;;;;;2268479;61;1128;-86
2021/07/07 20:00:22;30047.00;0.10;52.66;0.00;0.00;0.62;;;;;25.20;1.00;;;;;;2268566;61;1018;-86
2021/07/07 20:02:50;185992.00;0.62;321.81;53873.00;0.18;93.88;;;;;24.90;1.00;;;;;;2268581;61;1096;-86
2021/07/07 20:05:17;0.00;0.00;0.62;0.00;0.00;0.62;;;;;24.80;1.00;;;;;;2268572;61;1331;-88
2021/07/07 20:07:45;145698.00;0.49;252.39;0.00;0.00;0.62;;;;;24.70;1.00;;;;;;2268526;61;1908;-85
2021/07/07 20:10:15;0.00;0.00;0.62;0.00;0.00;0.62;;;;;24.70;1.00;;;;;;2268552;61;1052;-84
2021/07/07 20:12:45;0.00;0.00;0.62;0.00;0.00;0.62;;;;;24.70;1.00;;;;;;2268575;61;1094;-85
2021/07/07 20:15:15;0.00;0.00;0.62;0.00;0.00;0.62;;;;;24.90;1.00;;;;;;2268529;61;1377;-86
2021/07/07 20:17:43;0.00;0.00;0.62;0.00;0.00;0.62;;;;;25.00;1.00;;;;;;2268530;61;1126;-86
2021/07/07 20:20:12;84754.00;0.28;147.25;19394.00;0.06;34.22;;;;;24.80;1.00;;;;;;2268488;61;1642;-85
2021/07/07 20:22:39;5264.00;0.02;9.74;0.00;0.00;0.62;;;;;24.60;1.00;;;;;;2268500;61;933;-84
2021/07/07 20:25:08;0.00;0.00;0.62;0.00;0.00;0.62;;;;;24.80;1.00;;;;;;2268509;61;1368;-84
2021/07/07 20:27:35;0.00;0.00;0.62;0.00;0.00;0.62;;;;;24.80;1.00;;;;;;2268479;61;1994;-85
2021/07/07 20:30:03;61831.00;0.21;107.64;0.00;0.00;0.62;;;;;24.70;1.00;;;;;;2268534;61;1063;-86
2021/07/07 20:32:32;0.00;0.00;0.62;0.00;0.00;0.62;;;;;24.70;1.00;;;;;;2268494;61;1731;-86
2021/07/07 20:34:58;0.00;0.00;0.62;0.00;0.00;0.62;;;;;24.70;1.00;;;;;;2268476;61;1388;-86
2021/07/07 20:37:25;0.00;0.00;0.62;0.00;0.00;0.62;;;;;24.60;1.00;;;;;;2268473;61;1089;-86
2021/07/07 20:39:52;0.00;0.00;0.62;0.00;0.00;0.62;;;;;24.60;1.00;;;;;;2268502;61;1129;-87
2021/07/07 20:42:19;29571.00;0.10;51.84;0.00;0.00;0.62;;;;;24.60;1.00;;;;;;2268487;61;1118;-87
2021/07/07 20:44:46;13577.00;0.05;24.15;0.00;0.00;0.62;;;;;24.40;1.00;;;;;;2268400;61;1714;-87
2021/07/07 20:47:13;0.00;0.00;0.62;0.00;0.00;0.62;;;;;24.40;1.00;;;;;;2268395;61;1077;-87
2021/07/07 20:49:42;31984.00;0.11;56.02;0.00;0.00;0.62;;;;;24.30;1.00;;;;;;2268444;61;2005;-87
2021/07/07 20:52:09;265968.00;0.89;459.41;58827.00;0.20;102.45;;;;;24.40;1.00;;;;;;2268472;61;1043;-87
2021/07/07 20:54:35;30785.00;0.10;53.94;0.00;0.00;0.62;;;;;24.30;1.00;;;;;;2268434;61;1384;-87
2021/07/07 20:57:05;11574.00;0.04;20.68;0.00;0.00;0.62;;;;;24.40;1.00;;;;;;2268489;61;1080;-87
2021/07/07 20:59:32;0.00;0.00;0.62;0.00;0.00;0.62;;;;;24.50;1.00;;;;;;2268465;61;1127;-87
2021/07/07 21:01:59;60867.00;0.20;105.98;0.00;0.00;0.62;;;;;24.40;1.00;;;;;;2268447;61;938;-86
2021/07/07 21:04:26;0.00;0.00;0.62;0.00;0.00;0.62;;;;;24.30;1.00;;;;;;2268387;61;1412;-87
2021/07/07 21:06:54;65364.00;0.22;113.75;0.00;0.00;0.62;;;;;24.30;1.00;;;;;;2268422;61;1087;-87
2021/07/07 21:09:21;0.00;0.00;0.62;0.00;0.00;0.62;;;;;24.00;1.00;;;;;;2268437;61;2001;-87
2021/07/07 21:11:48;0.00;0.00;0.62;0.00;0.00;0.62;;;;;23.80;1.00;;;;;;2269163;61;1131;-86
2021/07/07 21:14:15;120223.00;0.40;208.47;54333.00;0.18;94.68;;;;;23.80;1.00;;;;;;2269108;61;1296;-86
2021/07/07 21:16:42;0.00;0.00;0.62;0.00;0.00;0.62;;;;;23.90;1.00;;;;;;2269114;61;1020;-87
2021/07/07 21:19:09;0.00;0.00;0.62;0.00;0.00;0.62;;;;;24.00;1.00;;;;;;2269075;61;1159;-86
2021/07/07 21:21:36;0.00;0.00;0.62;0.00;0.00;0.62;;;;;23.90;1.00;;;;;;2269076;61;1135;-87
2021/07/07 21:24:05;0.00;0.00;0.62;0.00;0.00;0.62;;;;;23.70;1.00;;;;;;2269056;61;1270;-86
2021/07/07 21:26:33;0.00;0.00;0.62;0.00;0.00;0.62;;;;;23.60;1.00;;;;;;2269085;61;1123;-86
2021/07/07 21:29:00;0.00;0.00;0.62;0.00;0.00;0.62;;;;;23.70;1.00;;;;;;2269037;61;1914;-86
2021/07/07 21:31:27;0.00;0.00;0.62;0.00;0.00;0.62;;;;;23.70;1.00;;;;;;2269069;61;1134;-86
2021/07/07 21:33:54;0.00;0.00;0.62;0.00;0.00;0.62;;;;;23.80;1.00;;;;;;2268848;61;1412;-87
2021/07/07 21:36:21;68553.00;0.23;119.26;0.00;0.00;0.62;;;;;23.80;1.00;;;;;;2269023;61;1542;-87
2021/07/07 21:38:48;0.00;0.00;0.62;0.00;0.00;0.62;;;;;23.90;1.00;;;;;;2269055;61;1150;-86
2021/07/07 21:41:16;0.00;0.00;0.62;0.00;0.00;0.62;;;;;23.80;1.00;;;;;;2269054;61;1095;-86
2021/07/07 21:43:43;27169.00;0.09;47.68;0.00;0.00;0.62;;;;;23.90;1.00;;;;;;2269011;61;1426;-87
2021/07/07 21:46:11;146138.00;0.49;253.15;61670.00;0.21;107.36;;;;;23.80;1.00;;;;;;2269018;61;1045;-86
2021/07/07 21:48:38;0.00;0.00;0.62;0.00;0.00;0.62;;;;;23.80;1.00;;;;;;2268984;61;1924;-86
2021/07/07 21:51:05;65206.00;0.22;113.48;0.00;0.00;0.62;;;;;23.60;1.00;;;;;;2268996;61;1106;-86
2021/07/07 21:53:32;71671.00;0.24;124.65;0.00;0.00;0.62;;;;;23.30;1.00;;;;;;2268975;61;1728;-86
2021/07/07 23:25:17;39739.00;0.13;69.44;0.00;0.00;0.62;;;;;23.40;1.00;;;;;;2464367;41;3515;31
2021/07/07 23:52:23;18069.00;0.06;31.93;0.00;0.00;0.62;;;;;22.50;2.90;;;;;;2271161;61;945;-89
